Time;durP1;ratioP1;P1;durP2;ratioP2;P2;SDS_P1;SDS_P2;PMS_P1;PMS_P2;Temp;Humidity;BMP_temperature;BMP_pressure;BME280_temperature;BME280_humidity;BME280_pressure;Samples;Min_cycle;Max_cycle;Signal;HPM_P1;HPM_P2
2023/05/09 04:54:36;;;;;;;1999.90;999.90;;;;;;;;;;5550055;22;20015;-64
2023/05/09 04:57:03;;;;;;;1999.90;999.90;;;;;;;;;;5070787;28;20033;-67
2023/05/09 04:59:29;;;;;;;1999.90;999.90;;;;;;;;;;5070978;28;20025;-63
2023/05/09 05:01:55;;;;;;;1999.90;999.90;;;;;;;;;;5071197;28;20036;-63
2023/05/09 05:04:21;;;;;;;1999.90;999.90;;;;;;;;;;5057821;28;20466;-63
2023/05/09 05:06:47;;;;;;;1999.90;999.90;;;;;;;;;;5070111;28;20044;-64
2023/05/09 05:09:13;;;;;;;1999.90;999.90;;;;;;;;;;5070011;28;20396;-70
2023/05/09 05:11:39;;;;;;;1999.90;999.90;;;;;;;;;;5070804;28;20032;-67
2023/05/09 05:14:05;;;;;;;1999.90;999.90;;;;;;;;;;5071537;28;20032;-64
2023/05/09 05:16:31;;;;;;;1999.90;999.90;;;;;;;;;;5071379;28;20024;-68
2023/05/09 05:18:57;;;;;;;1999.90;999.90;;;;;;;;;;5070894;28;20391;-63
2023/05/09 05:21:23;;;;;;;1999.90;999.90;;;;;;;;;;5071133;28;20025;-63
2023/05/09 05:23:49;;;;;;;1999.90;999.90;;;;;;;;;;5070606;28;20029;-78
2023/05/09 05:26:15;;;;;;;1999.90;999.90;;;;;;;;;;5070761;28;20044;-62
2023/05/09 05:28:41;;;;;;;1999.90;999.90;;;;;;;;;;5070917;28;20490;-63
2023/05/09 05:31:07;;;;;;;1999.90;999.90;;;;;;;;;;5070697;28;20043;-63
2023/05/09 05:33:33;;;;;;;1999.90;999.90;;;;;;;;;;5070995;28;20498;-66
2023/05/09 05:36:00;;;;;;;1999.90;999.90;;;;;;;;;;5071080;28;20430;-63
2023/05/09 05:38:26;;;;;;;1999.90;999.90;;;;;;;;;;5070727;28;20047;-72
2023/05/09 05:40:52;;;;;;;1999.90;999.90;;;;;;;;;;5070886;28;20032;-64
2023/05/09 05:43:18;;;;;;;1999.90;999.90;;;;;;;;;;5070894;28;20020;-65
2023/05/09 05:45:44;;;;;;;1999.90;999.90;;;;;;;;;;5070958;28;20037;-63
2023/05/09 05:48:10;;;;;;;1999.90;999.90;;;;;;;;;;5070867;28;20464;-67
2023/05/09 05:50:36;;;;;;;1999.90;999.90;;;;;;;;;;5070426;28;20032;-76
2023/05/09 05:53:02;;;;;;;1999.90;999.90;;;;;;;;;;5070711;28;20023;-63
2023/05/09 05:55:28;;;;;;;1999.90;999.90;;;;;;;;;;5070496;28;20056;-62
2023/05/09 05:57:54;;;;;;;1999.90;999.90;;;;;;;;;;5070536;28;20547;-75
2023/05/09 06:00:20;;;;;;;1999.90;999.90;;;;;;;;;;5070653;28;20502;-63
2023/05/09 06:02:46;;;;;;;1999.90;999.90;;;;;;;;;;5070335;28;20028;-63
2023/05/09 06:05:12;;;;;;;1999.90;999.90;;;;;;;;;;5070399;28;20064;-63
2023/05/09 06:07:40;;;;;;;1999.90;999.90;;;;;;;;;;5070647;28;20536;-66
2023/05/09 06:10:06;;;;;;;1999.90;999.90;;;;;;;;;;5070371;28;20081;-75
2023/05/09 06:12:32;;;;;;;1999.90;999.90;;;;;;;;;;5070418;28;20105;-78
2023/05/09 06:14:59;;;;;;;1999.90;999.90;;;;;;;;;;5051974;28;20037;-63
2023/05/09 06:17:25;;;;;;;1999.90;999.90;;;;;;;;;;5067819;28;20636;-62
2023/05/09 06:19:51;;;;;;;1999.90;999.90;;;;;;;;;;5067815;28;20108;-63
2023/05/09 06:22:18;;;;;;;1999.90;999.90;;;;;;;;;;5068833;28;20025;-75
2023/05/09 06:24:48;;;;;;;1999.90;999.90;;;;;;;;;;5070319;28;20112;-83
2023/05/09 06:27:15;;;;;;;1999.90;999.90;;;;;;;;;;5073249;28;20033;-61
2023/05/09 06:29:41;;;;;;;1999.90;999.90;;;;;;;;;;5067462;28;20064;-71
2023/05/09 06:32:07;;;;;;;1999.90;999.90;;;;;;;;;;5069622;28;20097;-74
2023/05/09 06:34:33;;;;;;;1999.90;999.90;;;;;;;;;;5071240;28;20025;-65
2023/05/09 06:36:59;;;;;;;1999.90;999.90;;;;;;;;;;5067559;28;20356;-66
2023/05/09 06:39:25;;;;;;;1999.90;999.90;;;;;;;;;;5071582;28;20082;-67
2023/05/09 06:41:51;;;;;;;1999.90;999.90;;;;;;;;;;5067399;28;20329;-64
2023/05/09 06:44:17;;;;;;;1999.90;999.90;;;;;;;;;;5068032;28;20472;-76
2023/05/09 06:46:43;;;;;;;1999.90;999.90;;;;;;;;;;5073616;28;20094;-67
2023/05/09 06:49:09;;;;;;;1999.90;999.90;;;;;;;;;;5071107;28;20035;-68
2023/05/09 06:51:36;;;;;;;1999.90;999.90;;;;;;;;;;5075909;28;20523;-77
2023/05/09 06:54:02;;;;;;;1999.90;999.90;;;;;;;;;;5072096;28;20032;-72
2023/05/09 06:56:28;;;;;;;1999.90;999.90;;;;;;;;;;5072303;28;20052;-68
2023/05/09 06:58:54;;;;;;;1999.90;999.90;;;;;;;;;;5072374;28;20466;-70
2023/05/09 07:01:20;;;;;;;1999.90;999.90;;;;;;;;;;5072152;28;20426;-71
2023/05/09 07:03:46;;;;;;;1999.90;999.90;;;;;;;;;;5072858;28;20025;-62
2023/05/09 07:06:12;;;;;;;1999.90;999.90;;;;;;;;;;5072521;28;20123;-62
2023/05/09 07:08:38;;;;;;;1999.90;999.90;;;;;;;;;;5054122;28;20395;-78
2023/05/09 07:11:04;;;;;;;1999.90;999.90;;;;;;;;;;5073405;28;20059;-62
2023/05/09 07:13:30;;;;;;;1999.90;999.90;;;;;;;;;;5073552;28;20031;-68
2023/05/09 07:15:56;;;;;;;1999.90;999.90;;;;;;;;;;5071068;28;20025;-61
2023/05/09 07:18:22;;;;;;;1999.90;999.90;;;;;;;;;;5072676;28;20032;-75
2023/05/09 07:20:49;;;;;;;1999.90;999.90;;;;;;;;;;5071943;28;20040;-62
2023/05/09 07:23:15;;;;;;;1999.90;999.90;;;;;;;;;;5072523;28;20023;-63
2023/05/09 07:25:41;;;;;;;1999.90;999.90;;;;;;;;;;5071387;28;20044;-70
2023/05/09 07:28:07;;;;;;;1999.90;999.90;;;;;;;;;;5071783;28;20044;-64
2023/05/09 07:30:33;;;;;;;1999.90;999.90;;;;;;;;;;5072963;28;20028;-62
2023/05/09 07:33:00;;;;;;;1999.90;999.90;;;;;;;;;;5073146;28;20033;-67
2023/05/09 07:35:26;;;;;;;1999.90;999.90;;;;;;;;;;5072266;28;20122;-62
2023/05/09 07:37:52;;;;;;;1999.90;999.90;;;;;;;;;;5071534;28;20124;-62
2023/05/09 07:40:18;;;;;;;1999.90;999.90;;;;;;;;;;5071639;28;20455;-76
2023/05/09 07:42:48;;;;;;;1999.90;999.90;;;;;;;;;;5072012;28;20061;-74
2023/05/09 07:45:14;;;;;;;1999.90;999.90;;;;;;;;;;5071691;28;20139;-72
2023/05/09 07:47:40;;;;;;;1999.90;999.90;;;;;;;;;;5071439;28;20071;-63
2023/05/09 07:50:06;;;;;;;1999.90;999.90;;;;;;;;;;5071385;28;20032;-68
2023/05/09 07:52:32;;;;;;;1999.90;999.90;;;;;;;;;;5070339;28;20494;-73
2023/05/09 07:54:59;;;;;;;1999.90;999.90;;;;;;;;;;5070590;28;20035;-68
2023/05/09 07:57:25;;;;;;;1999.90;999.90;;;;;;;;;;5070643;28;20159;-69
2023/05/09 07:59:51;;;;;;;1999.90;999.90;;;;;;;;;;5071013;28;20108;-62
2023/05/09 08:02:17;;;;;;;1999.90;999.90;;;;;;;;;;5070855;28;20497;-62
2023/05/09 08:04:47;;;;;;;1999.90;999.90;;;;;;;;;;5070904;28;20487;-60
2023/05/09 08:07:13;;;;;;;1999.90;999.90;;;;;;;;;;5071563;28;20488;-61
2023/05/09 08:09:39;;;;;;;1999.90;999.90;;;;;;;;;;5071179;28;20020;-61
2023/05/09 08:12:05;;;;;;;1999.90;999.90;;;;;;;;;;5071405;28;20535;-71
2023/05/09 08:14:31;;;;;;;1999.90;999.90;;;;;;;;;;5071620;28;20028;-62
2023/05/09 08:16:57;;;;;;;1999.90;999.90;;;;;;;;;;5071454;28;20089;-62
2023/05/09 08:19:24;;;;;;;1999.90;999.90;;;;;;;;;;5070977;28;20040;-61
2023/05/09 08:21:51;;;;;;;1999.90;999.90;;;;;;;;;;5070649;28;20123;-61
2023/05/09 08:24:17;;;;;;;1999.90;999.90;;;;;;;;;;5070687;28;20017;-61
2023/05/09 08:26:43;;;;;;;1999.90;999.90;;;;;;;;;;5067632;28;20028;-62
2023/05/09 08:29:10;;;;;;;1999.90;999.90;;;;;;;;;;5070401;28;20018;-61
2023/05/09 08:31:36;;;;;;;1999.90;999.90;;;;;;;;;;5070300;28;20475;-64
2023/05/09 08:34:02;;;;;;;1999.90;999.90;;;;;;;;;;5070393;28;20028;-68
2023/05/09 08:36:29;;;;;;;1999.90;999.90;;;;;;;;;;5070638;28;20021;-63
2023/05/09 08:38:55;;;;;;;1999.90;999.90;;;;;;;;;;5069811;28;20025;-61
2023/05/09 08:41:26;;;;;;;1999.90;999.90;;;;;;;;;;5070293;28;20033;-62
2023/05/09 08:43:53;;;;;;;1999.90;999.90;;;;;;;;;;5070405;28;20024;-61
2023/05/09 08:46:22;;;;;;;1999.90;999.90;;;;;;;;;;5070232;28;20097;-63
2023/05/09 08:48:48;;;;;;;1999.90;999.90;;;;;;;;;;5070160;28;20021;-66
2023/05/09 08:51:16;;;;;;;1999.90;999.90;;;;;;;;;;5070201;28;20106;-70
2023/05/09 08:53:42;;;;;;;1999.90;999.90;;;;;;;;;;5070162;28;20066;-65
2023/05/09 08:56:09;;;;;;;1999.90;999.90;;;;;;;;;;5069962;28;20052;-71
2023/05/09 08:58:35;;;;;;;1999.90;999.90;;;;;;;;;;5070246;28;20483;-71
2023/05/09 09:01:05;;;;;;;1999.90;999.90;;;;;;;;;;5069975;28;20030;-63
2023/05/09 09:03:32;;;;;;;1999.90;999.90;;;;;;;;;;5070268;28;20029;-62
2023/05/09 09:05:58;;;;;;;1999.90;999.90;;;;;;;;;;5069463;28;20028;-61
2023/05/09 09:08:25;;;;;;;1999.90;999.90;;;;;;;;;;5069778;28;20021;-71
2023/05/09 09:10:51;;;;;;;1999.90;999.90;;;;;;;;;;5070108;28;20067;-64
2023/05/09 09:13:18;;;;;;;1999.90;999.90;;;;;;;;;;5069971;28;20020;-64
2023/05/09 09:15:45;;;;;;;1999.90;999.90;;;;;;;;;;5069425;28;20707;-73
2023/05/09 09:18:15;;;;;;;1999.90;999.90;;;;;;;;;;5066054;28;20021;-68
2023/05/09 09:20:47;;;;;;;1999.90;999.90;;;;;;;;;;5069089;28;20052;-64
2023/05/09 09:23:17;;;;;;;1999.90;999.90;;;;;;;;;;5069144;28;20108;-66
2023/05/09 09:25:45;;;;;;;1999.90;999.90;;;;;;;;;;5069076;28;20047;-61
2023/05/09 09:28:11;;;;;;;1999.90;999.90;;;;;;;;;;5069050;28;20066;-65
2023/05/09 09:30:43;;;;;;;1999.90;999.90;;;;;;;;;;5069824;28;20438;-62
2023/05/09 09:33:09;;;;;;;1999.90;999.90;;;;;;;;;;5071309;28;20029;-71
2023/05/09 09:35:39;;;;;;;1999.90;999.90;;;;;;;;;;5070544;28;20029;-63
2023/05/09 09:38:06;;;;;;;1999.90;999.90;;;;;;;;;;5070047;28;20020;-61
2023/05/09 09:40:32;;;;;;;1999.90;999.90;;;;;;;;;;5070410;28;20134;-63
2023/05/09 09:42:58;;;;;;;1999.90;999.90;;;;;;;;;;5069940;28;20389;-66
2023/05/09 09:45:24;;;;;;;1999.90;999.90;;;;;;;;;;5069979;28;20578;-62
2023/05/09 09:47:50;;;;;;;1999.90;999.90;;;;;;;;;;5070711;28;20403;-61
2023/05/09 09:50:21;;;;;;;1999.90;999.90;;;;;;;;;;5069328;28;20081;-62
2023/05/09 09:52:51;;;;;;;1999.90;999.90;;;;;;;;;;5069596;28;20078;-62
2023/05/09 09:55:18;;;;;;;1999.90;999.90;;;;;;;;;;5069807;28;20825;-65
2023/05/09 09:57:45;;;;;;;1999.90;999.90;;;;;;;;;;5070658;28;20020;-72
2023/05/09 10:00:11;;;;;;;1999.90;999.90;;;;;;;;;;5069875;28;20028;-71
2023/05/09 10:02:56;;;;;;;1999.90;999.90;;;;;;;;;;5070659;28;20060;-67
2023/05/09 10:05:23;;;;;;;1999.90;999.90;;;;;;;;;;5070150;28;20047;-65
2023/05/09 10:07:52;;;;;;;1999.90;999.90;;;;;;;;;;5070596;28;20092;-73
2023/05/09 10:10:18;;;;;;;1999.90;999.90;;;;;;;;;;5070183;28;20036;-62
2023/05/09 10:12:44;;;;;;;1999.90;999.90;;;;;;;;;;5069704;28;20361;-62
2023/05/09 10:15:12;;;;;;;1999.90;999.90;;;;;;;;;;5070535;28;20024;-63
2023/05/09 10:17:38;;;;;;;1999.90;999.90;;;;;;;;;;5071658;28;20034;-71
2023/05/09 10:20:05;;;;;;;1999.90;999.90;;;;;;;;;;5074197;28;20483;-64
2023/05/09 10:22:33;;;;;;;1999.90;999.90;;;;;;;;;;5074629;28;20031;-64
2023/05/09 10:24:59;;;;;;;1999.90;999.90;;;;;;;;;;5074077;28;20599;-73
2023/05/09 10:27:27;;;;;;;1999.90;999.90;;;;;;;;;;5073947;28;20115;-63
2023/05/09 10:30:01;;;;;;;1999.90;999.90;;;;;;;;;;5074290;28;20427;-66
2023/05/09 10:32:31;;;;;;;1999.90;999.90;;;;;;;;;;5074227;28;20426;-74
2023/05/09 10:35:01;;;;;;;1999.90;999.90;;;;;;;;;;5073970;28;20475;-63
2023/05/09 10:37:27;;;;;;;1999.90;999.90;;;;;;;;;;5074016;28;20035;-64
2023/05/09 10:39:54;;;;;;;1999.90;999.90;;;;;;;;;;5073611;28;20111;-63
2023/05/09 10:42:22;;;;;;;1999.90;999.90;;;;;;;;;;5074029;28;20384;-63
2023/05/09 10:44:49;;;;;;;1999.90;999.90;;;;;;;;;;5073286;28;20013;-69
2023/05/09 10:47:15;;;;;;;1999.90;999.90;;;;;;;;;;5073200;28;20078;-65
2023/05/09 10:49:42;;;;;;;1999.90;999.90;;;;;;;;;;5073534;28;20035;-62
2023/05/09 10:52:08;;;;;;;1999.90;999.90;;;;;;;;;;5073480;28;20024;-65
2023/05/09 10:54:36;;;;;;;1999.90;999.90;;;;;;;;;;5073159;28;20029;-64
2023/05/09 10:57:04;;;;;;;1999.90;999.90;;;;;;;;;;5073769;28;20053;-62
2023/05/09 10:59:44;;;;;;;1999.90;999.90;;;;;;;;;;5073109;28;20024;-63
2023/05/09 11:02:13;;;;;;;1999.90;999.90;;;;;;;;;;5073539;28;20029;-63
2023/05/09 11:04:39;;;;;;;1999.90;999.90;;;;;;;;;;5072934;28;20046;-66
2023/05/09 11:07:38;;;;;;;1999.90;999.90;;;;;;;;;;5073526;28;20103;-67
2023/05/09 11:10:08;;;;;;;1999.90;999.90;;;;;;;;;;4972295;28;20051;-69
2023/05/09 11:12:34;;;;;;;1999.90;999.90;;;;;;;;;;4971669;28;20053;-62
2023/05/09 11:15:07;;;;;;;1999.90;999.90;;;;;;;;;;4972479;28;20027;-67
2023/05/09 11:17:37;;;;;;;1999.90;999.90;;;;;;;;;;4971787;28;20026;-72
2023/05/09 11:20:05;;;;;;;1999.90;999.90;;;;;;;;;;4973603;28;20042;-63
2023/05/09 11:22:37;;;;;;;1999.90;999.90;;;;;;;;;;4971527;28;20023;-64
2023/05/09 11:25:05;;;;;;;1999.90;999.90;;;;;;;;;;4971321;28;20047;-69
2023/05/09 11:27:42;;;;;;;1999.90;999.90;;;;;;;;;;4971446;28;20058;-68
2023/05/09 11:30:09;;;;;;;1999.90;999.90;;;;;;;;;;4970910;28;20113;-62
2023/05/09 11:32:40;;;;;;;1999.90;999.90;;;;;;;;;;4971796;28;20043;-62
2023/05/09 11:35:08;;;;;;;1999.90;999.90;;;;;;;;;;4971934;28;20050;-74
2023/05/09 11:37:39;;;;;;;1999.90;999.90;;;;;;;;;;4971195;28;20031;-62
2023/05/09 11:40:05;;;;;;;1999.90;999.90;;;;;;;;;;4970509;28;20533;-62
2023/05/09 11:42:31;;;;;;;1999.90;999.90;;;;;;;;;;4971372;28;20066;-64
2023/05/09 11:44:58;;;;;;;1999.90;999.90;;;;;;;;;;4987860;28;20044;-62
2023/05/09 11:47:24;;;;;;;1999.90;999.90;;;;;;;;;;5052641;28;20029;-62
2023/05/09 11:49:51;;;;;;;1999.90;999.90;;;;;;;;;;5052464;28;20531;-62
2023/05/09 11:52:19;;;;;;;1999.90;999.90;;;;;;;;;;5052424;28;20441;-62
2023/05/09 11:54:45;;;;;;;1999.90;999.90;;;;;;;;;;5059988;28;20128;-62
2023/05/09 11:57:16;;;;;;;1999.90;999.90;;;;;;;;;;5072269;28;20071;-70
2023/05/09 11:59:42;;;;;;;1999.90;999.90;;;;;;;;;;5070954;28;20016;-62
2023/05/09 12:02:08;;;;;;;1999.90;999.90;;;;;;;;;;5071796;28;20032;-62
2023/05/09 12:04:35;;;;;;;1999.90;999.90;;;;;;;;;;5071769;28;20029;-66
2023/05/09 12:07:01;;;;;;;1999.90;999.90;;;;;;;;;;5072134;28;20040;-71
2023/05/09 12:09:37;;;;;;;1999.90;999.90;;;;;;;;;;5071240;28;20033;-70
2023/05/09 12:12:10;;;;;;;1999.90;999.90;;;;;;;;;;5072193;28;20024;-63
2023/05/09 12:14:36;;;;;;;1999.90;999.90;;;;;;;;;;5072044;28;20017;-62
2023/05/09 12:17:03;;;;;;;1999.90;999.90;;;;;;;;;;5072144;28;20073;-63
2023/05/09 12:19:29;;;;;;;1999.90;999.90;;;;;;;;;;5071919;28;20099;-62
2023/05/09 12:21:58;;;;;;;1999.90;999.90;;;;;;;;;;5071981;28;20016;-71
2023/05/09 12:24:28;;;;;;;1999.90;999.90;;;;;;;;;;5071860;28;20067;-68
2023/05/09 12:26:54;;;;;;;1999.90;999.90;;;;;;;;;;5071716;28;20138;-70
2023/05/09 12:29:21;;;;;;;1999.90;999.90;;;;;;;;;;5070625;28;20032;-69
2023/05/09 12:31:47;;;;;;;1999.90;999.90;;;;;;;;;;5071824;28;20029;-64
2023/05/09 12:34:13;;;;;;;1999.90;999.90;;;;;;;;;;5071143;28;20023;-63
2023/05/09 12:36:39;;;;;;;1999.90;999.90;;;;;;;;;;5071754;28;20029;-63
2023/05/09 12:39:09;;;;;;;1999.90;999.90;;;;;;;;;;5071920;28;20024;-64
2023/05/09 12:41:42;;;;;;;1999.90;999.90;;;;;;;;;;5071699;28;20508;-69
2023/05/09 12:44:08;;;;;;;1999.90;999.90;;;;;;;;;;5071794;28;20028;-70
2023/05/09 12:46:35;;;;;;;1999.90;999.90;;;;;;;;;;5071727;28;20032;-65
2023/05/09 12:49:01;;;;;;;1999.90;999.90;;;;;;;;;;5071916;28;20063;-66
2023/05/09 12:51:27;;;;;;;1999.90;999.90;;;;;;;;;;5071377;28;20025;-69
2023/05/09 12:53:53;;;;;;;1999.90;999.90;;;;;;;;;;5071490;28;20021;-63
2023/05/09 12:56:24;;;;;;;1999.90;999.90;;;;;;;;;;5070993;28;20569;-64
2023/05/09 12:58:50;;;;;;;1999.90;999.90;;;;;;;;;;5071208;28;20031;-64
2023/05/09 13:01:16;;;;;;;1999.90;999.90;;;;;;;;;;5071185;28;20544;-63
2023/05/09 13:03:43;;;;;;;1999.90;999.90;;;;;;;;;;5071543;28;20115;-63
2023/05/09 13:06:13;;;;;;;1999.90;999.90;;;;;;;;;;5071292;28;20478;-62
2023/05/09 13:08:39;;;;;;;1999.90;999.90;;;;;;;;;;5071317;28;20048;-71
2023/05/09 13:11:06;;;;;;;1999.90;999.90;;;;;;;;;;5071051;28;20503;-75
2023/05/09 13:13:32;;;;;;;1999.90;999.90;;;;;;;;;;5071154;28;20020;-64
2023/05/09 13:15:58;;;;;;;1999.90;999.90;;;;;;;;;;5070975;28;20035;-62
2023/05/09 13:18:24;;;;;;;1999.90;999.90;;;;;;;;;;5070986;28;20476;-65
2023/05/09 13:20:50;;;;;;;1999.90;999.90;;;;;;;;;;5070551;28;20060;-62
2023/05/09 13:23:17;;;;;;;1999.90;999.90;;;;;;;;;;5070559;28;20488;-73
2023/05/09 13:25:43;;;;;;;1999.90;999.90;;;;;;;;;;5070816;28;20040;-70
2023/05/09 13:28:09;;;;;;;1999.90;999.90;;;;;;;;;;5070933;28;20070;-69
2023/05/09 13:30:35;;;;;;;1999.90;999.90;;;;;;;;;;5070917;28;20028;-70
2023/05/09 13:33:01;;;;;;;1999.90;999.90;;;;;;;;;;5070858;28;20032;-69
2023/05/09 13:35:28;;;;;;;1999.90;999.90;;;;;;;;;;5071183;28;20376;-72
2023/05/09 13:37:54;;;;;;;1999.90;999.90;;;;;;;;;;5071117;28;20102;-67
2023/05/09 13:40:20;;;;;;;1999.90;999.90;;;;;;;;;;5070719;28;20031;-69
2023/05/09 13:42:47;;;;;;;1999.90;999.90;;;;;;;;;;5070241;28;20028;-74
2023/05/09 13:45:14;;;;;;;1999.90;999.90;;;;;;;;;;5070118;28;20028;-71
2023/05/09 13:47:40;;;;;;;1999.90;999.90;;;;;;;;;;5070330;28;20490;-66
2023/05/09 13:50:07;;;;;;;1999.90;999.90;;;;;;;;;;5070586;28;20017;-79
2023/05/09 13:52:33;;;;;;;1999.90;999.90;;;;;;;;;;5070305;28;20058;-81
2023/05/09 13:54:59;;;;;;;1999.90;999.90;;;;;;;;;;5070403;28;20537;-82
2023/05/09 13:57:26;;;;;;;1999.90;999.90;;;;;;;;;;5070714;28;20032;-78
2023/05/09 13:59:52;;;;;;;1999.90;999.90;;;;;;;;;;5070376;28;20070;-74
2023/05/09 14:02:18;;;;;;;1999.90;999.90;;;;;;;;;;5071150;28;20060;-67
2023/05/09 14:04:44;;;;;;;1999.90;999.90;;;;;;;;;;5070712;28;20029;-82
2023/05/09 14:07:12;;;;;;;1999.90;999.90;;;;;;;;;;5070719;28;20097;-67
2023/05/09 14:09:38;;;;;;;1999.90;999.90;;;;;;;;;;5070650;28;20059;-67
2023/05/09 14:12:05;;;;;;;1999.90;999.90;;;;;;;;;;5070780;28;20029;-72
2023/05/09 14:14:31;;;;;;;1999.90;999.90;;;;;;;;;;5070646;28;20052;-65
2023/05/09 14:16:58;;;;;;;1999.90;999.90;;;;;;;;;;5070864;28;20024;-83
2023/05/09 14:19:25;;;;;;;1999.90;999.90;;;;;;;;;;5070694;28;20037;-65
2023/05/09 14:21:52;;;;;;;1999.90;999.90;;;;;;;;;;5070677;28;20020;-65
2023/05/09 14:24:18;;;;;;;1999.90;999.90;;;;;;;;;;5070632;28;20079;-65
2023/05/09 14:26:44;;;;;;;1999.90;999.90;;;;;;;;;;5070411;28;20448;-84
2023/05/09 14:29:10;;;;;;;1999.90;999.90;;;;;;;;;;5069949;28;20468;-64
2023/05/09 14:31:36;;;;;;;1999.90;999.90;;;;;;;;;;5070406;28;20039;-75
2023/05/09 14:34:04;;;;;;;1999.90;999.90;;;;;;;;;;5070522;28;20036;-67
2023/05/09 14:36:31;;;;;;;1999.90;999.90;;;;;;;;;;5070069;28;20376;-75
2023/05/09 14:38:57;;;;;;;1999.90;999.90;;;;;;;;;;5070377;28;20083;-78
2023/05/09 14:41:23;;;;;;;1999.90;999.90;;;;;;;;;;5070236;28;20021;-78
2023/05/09 14:43:49;;;;;;;1999.90;999.90;;;;;;;;;;5070162;28;20025;-65
2023/05/09 14:46:15;;;;;;;1999.90;999.90;;;;;;;;;;5070198;28;20483;-65
2023/05/09 14:48:41;;;;;;;1999.90;999.90;;;;;;;;;;5070298;28;20103;-74
2023/05/09 14:51:07;;;;;;;1999.90;999.90;;;;;;;;;;5070107;28;20112;-77
2023/05/09 14:53:40;;;;;;;1999.90;999.90;;;;;;;;;;5070310;28;20025;-65
2023/05/09 14:56:06;;;;;;;1999.90;999.90;;;;;;;;;;5070030;28;20547;-66
2023/05/09 14:58:35;;;;;;;1999.90;999.90;;;;;;;;;;5069961;28;20468;-72
2023/05/09 15:01:01;;;;;;;1999.90;999.90;;;;;;;;;;5070391;28;20044;-77
2023/05/09 15:03:28;;;;;;;1999.90;999.90;;;;;;;;;;5070297;28;20111;-67
2023/05/09 15:05:54;;;;;;;1999.90;999.90;;;;;;;;;;5072925;28;20040;-65
2023/05/09 15:08:20;;;;;;;1999.90;999.90;;;;;;;;;;5073810;28;20096;-79
2023/05/09 15:10:47;;;;;;;1999.90;999.90;;;;;;;;;;5073404;28;20031;-65
2023/05/09 15:13:13;;;;;;;1999.90;999.90;;;;;;;;;;5073786;28;20025;-74
2023/05/09 15:15:39;;;;;;;1999.90;999.90;;;;;;;;;;5073658;28;20036;-78
2023/05/09 15:18:08;;;;;;;1999.90;999.90;;;;;;;;;;5073643;28;20040;-66
2023/05/09 15:20:35;;;;;;;1999.90;999.90;;;;;;;;;;5073406;28;20044;-72
2023/05/09 15:23:01;;;;;;;1999.90;999.90;;;;;;;;;;5073420;28;20076;-65
2023/05/09 15:25:27;;;;;;;1999.90;999.90;;;;;;;;;;5072873;28;20090;-70
2023/05/09 15:27:53;;;;;;;1999.90;999.90;;;;;;;;;;5073395;28;20094;-76
2023/05/09 15:30:19;;;;;;;1999.90;999.90;;;;;;;;;;5072844;28;20035;-65
2023/05/09 15:32:45;;;;;;;1999.90;999.90;;;;;;;;;;5073470;28;20374;-67
2023/05/09 15:35:12;;;;;;;1999.90;999.90;;;;;;;;;;5073417;28;20032;-65
2023/05/09 15:37:38;;;;;;;1999.90;999.90;;;;;;;;;;5073107;28;20017;-65
2023/05/09 15:40:04;;;;;;;1999.90;999.90;;;;;;;;;;5073029;28;20028;-65
2023/05/09 15:42:30;;;;;;;1999.90;999.90;;;;;;;;;;5072933;28;20085;-65
2023/05/09 15:44:56;;;;;;;1999.90;999.90;;;;;;;;;;5072942;28;20472;-65
2023/05/09 15:47:22;;;;;;;1999.90;999.90;;;;;;;;;;5073050;28;20032;-64
2023/05/09 15:49:48;;;;;;;1999.90;999.90;;;;;;;;;;5072429;28;20073;-77
2023/05/09 15:52:14;;;;;;;1999.90;999.90;;;;;;;;;;5072024;28;20036;-64
2023/05/09 15:54:40;;;;;;;1999.90;999.90;;;;;;;;;;5071358;28;20028;-66
2023/05/09 15:57:07;;;;;;;1999.90;999.90;;;;;;;;;;5071940;28;20040;-67
2023/05/09 15:59:33;;;;;;;1999.90;999.90;;;;;;;;;;5071105;28;20488;-65
2023/05/09 16:01:59;;;;;;;1999.90;999.90;;;;;;;;;;5071283;28;20104;-67
2023/05/09 16:04:25;;;;;;;1999.90;999.90;;;;;;;;;;5071022;28;20052;-64
2023/05/09 16:06:51;;;;;;;1999.90;999.90;;;;;;;;;;5071381;28;20118;-66
2023/05/09 16:09:18;;;;;;;1999.90;999.90;;;;;;;;;;5071751;28;20021;-66
2023/05/09 16:11:44;;;;;;;1999.90;999.90;;;;;;;;;;5072353;28;20032;-67
2023/05/09 16:14:11;;;;;;;1999.90;999.90;;;;;;;;;;5072239;28;20021;-72
2023/05/09 16:16:38;;;;;;;1999.90;999.90;;;;;;;;;;5071664;28;20064;-77
2023/05/09 16:19:05;;;;;;;1999.90;999.90;;;;;;;;;;5072342;28;20103;-63
2023/05/09 16:21:31;;;;;;;1999.90;999.90;;;;;;;;;;5072138;28;20024;-64
2023/05/09 16:23:59;;;;;;;1999.90;999.90;;;;;;;;;;5072452;28;20028;-64
2023/05/09 16:26:26;;;;;;;1999.90;999.90;;;;;;;;;;5071922;28;20044;-65
2023/05/09 16:28:52;;;;;;;1999.90;999.90;;;;;;;;;;5071828;28;20077;-63
2023/05/09 16:31:18;;;;;;;1999.90;999.90;;;;;;;;;;5072123;28;20481;-72
2023/05/09 16:33:45;;;;;;;1999.90;999.90;;;;;;;;;;5072239;28;20028;-64
2023/05/09 16:36:11;;;;;;;1999.90;999.90;;;;;;;;;;5072416;28;20420;-77
2023/05/09 16:38:37;;;;;;;1999.90;999.90;;;;;;;;;;5072081;28;20036;-77
2023/05/09 16:41:04;;;;;;;1999.90;999.90;;;;;;;;;;5071712;28;20025;-66
2023/05/09 16:43:30;;;;;;;1999.90;999.90;;;;;;;;;;5069817;28;20385;-65
2023/05/09 16:45:56;;;;;;;1999.90;999.90;;;;;;;;;;5071714;28;20466;-65
2023/05/09 16:48:22;;;;;;;1999.90;999.90;;;;;;;;;;5071885;28;20665;-72
2023/05/09 16:50:52;;;;;;;1999.90;999.90;;;;;;;;;;5071760;28;20024;-74
2023/05/09 16:53:18;;;;;;;1999.90;999.90;;;;;;;;;;5071518;28;20016;-63
2023/05/09 16:55:46;;;;;;;1999.90;999.90;;;;;;;;;;5070798;28;20583;-75
2023/05/09 16:58:12;;;;;;;1999.90;999.90;;;;;;;;;;5070177;28;20029;-65
2023/05/09 17:00:38;;;;;;;1999.90;999.90;;;;;;;;;;5070295;28;20462;-72
2023/05/09 17:03:14;;;;;;;1999.90;999.90;;;;;;;;;;5071264;28;20035;-85
2023/05/09 17:05:40;;;;;;;1999.90;999.90;;;;;;;;;;5052622;28;20071;-73
2023/05/09 17:08:06;;;;;;;1999.90;999.90;;;;;;;;;;5052423;28;20029;-72
2023/05/09 17:10:32;;;;;;;1999.90;999.90;;;;;;;;;;5071191;28;20044;-67
2023/05/09 17:12:58;;;;;;;1999.90;999.90;;;;;;;;;;5070004;28;20024;-82
2023/05/09 17:15:25;;;;;;;1999.90;999.90;;;;;;;;;;5070147;28;20411;-77
2023/05/09 17:17:51;;;;;;;1999.90;999.90;;;;;;;;;;5067995;28;20351;-77
2023/05/09 17:20:17;;;;;;;1999.90;999.90;;;;;;;;;;5070861;28;20507;-77
2023/05/09 17:22:43;;;;;;;1999.90;999.90;;;;;;;;;;5069822;28;20020;-67
2023/05/09 17:25:09;;;;;;;1999.90;999.90;;;;;;;;;;5070384;28;20039;-83
2023/05/09 17:27:35;;;;;;;1999.90;999.90;;;;;;;;;;5069933;28;20388;-83
2023/05/09 17:30:01;;;;;;;1999.90;999.90;;;;;;;;;;5070628;28;20074;-64
2023/05/09 17:32:27;;;;;;;1999.90;999.90;;;;;;;;;;5070462;28;20028;-81
2023/05/09 17:34:53;;;;;;;1999.90;999.90;;;;;;;;;;5069642;28;20162;-67
2023/05/09 17:37:19;;;;;;;1999.90;999.90;;;;;;;;;;5069785;28;20095;-73
2023/05/09 17:39:46;;;;;;;1999.90;999.90;;;;;;;;;;5068902;28;20055;-64
2023/05/09 17:42:12;;;;;;;1999.90;999.90;;;;;;;;;;5070656;28;20027;-70
2023/05/09 17:44:38;;;;;;;1999.90;999.90;;;;;;;;;;5070551;28;20379;-78
2023/05/09 17:47:06;;;;;;;1999.90;999.90;;;;;;;;;;5070501;28;20056;-73
2023/05/09 17:49:32;;;;;;;1999.90;999.90;;;;;;;;;;5070935;28;20097;-81
2023/05/09 17:51:58;;;;;;;1999.90;999.90;;;;;;;;;;5070484;28;20464;-65
2023/05/09 17:54:24;;;;;;;1999.90;999.90;;;;;;;;;;5070297;28;20025;-70
2023/05/09 17:57:00;;;;;;;1999.90;999.90;;;;;;;;;;5070366;28;20529;-65
2023/05/09 17:59:26;;;;;;;1999.90;999.90;;;;;;;;;;5070535;28;20082;-70
2023/05/09 18:01:53;;;;;;;1999.90;999.90;;;;;;;;;;5070654;28;20036;-66
2023/05/09 18:04:19;;;;;;;1999.90;999.90;;;;;;;;;;5070625;28;20024;-77
2023/05/09 18:06:46;;;;;;;1999.90;999.90;;;;;;;;;;5070454;28;20044;-73
2023/05/09 18:09:12;;;;;;;1999.90;999.90;;;;;;;;;;5069528;28;20356;-76
2023/05/09 18:11:38;;;;;;;1999.90;999.90;;;;;;;;;;5069372;28;20040;-77
2023/05/09 18:14:04;;;;;;;1999.90;999.90;;;;;;;;;;5069017;28;20074;-75
2023/05/09 18:16:31;;;;;;;1999.90;999.90;;;;;;;;;;5069455;28;20052;-65
2023/05/09 18:18:58;;;;;;;1999.90;999.90;;;;;;;;;;5070483;28;20021;-69
2023/05/09 18:21:24;;;;;;;1999.90;999.90;;;;;;;;;;5070605;28;20032;-71
2023/05/09 18:23:50;;;;;;;1999.90;999.90;;;;;;;;;;5070166;28;20028;-78
2023/05/09 18:26:16;;;;;;;1999.90;999.90;;;;;;;;;;5070077;28;20028;-72
2023/05/09 18:28:43;;;;;;;1999.90;999.90;;;;;;;;;;5070273;28;20480;-72
2023/05/09 18:31:11;;;;;;;1999.90;999.90;;;;;;;;;;5070148;28;20123;-72
2023/05/09 18:33:38;;;;;;;1999.90;999.90;;;;;;;;;;5070498;28;20017;-67